sensor_id;sensor_type;location;lat;lon;timestamp;temperature;humidity
67186;HTU21D;54116;53.518;49.398;2024-02-26T01:25:21;-23.18;118.99
67186;HTU21D;54116;53.518;49.398;2024-02-26T02:58:14;-23.06;118.99
67186;HTU21D;54116;53.518;49.398;2024-02-26T03:00:40;-22.99;118.99
67186;HTU21D;54116;53.518;49.398;2024-02-26T03:10:26;-22.98;118.99
67186;HTU21D;54116;53.518;49.398;2024-02-26T03:12:53;-22.97;118.99
67186;HTU21D;54116;53.518;49.398;2024-02-26T03:15:19;-23.00;118.99
67186;HTU21D;54116;53.518;49.398;2024-02-26T03:17:46;-23.08;118.99
67186;HTU21D;54116;53.518;49.398;2024-02-26T03:20:12;-23.08;118.99
67186;HTU21D;54116;53.518;49.398;2024-02-26T04:54:31;-18.07;118.99
67186;HTU21D;54116;53.518;49.398;2024-02-26T04:56:58;-17.66;118.99
67186;HTU21D;54116;53.518;49.398;2024-02-26T04:59:25;-18.20;118.99
67186;HTU21D;54116;53.518;49.398;2024-02-26T05:06:40;-19.55;118.99
67186;HTU21D;54116;53.518;49.398;2024-02-26T05:34:07;-18.51;118.99
67186;HTU21D;54116;53.518;49.398;2024-02-26T06:16:50;-16.71;118.99
67186;HTU21D;54116;53.518;49.398;2024-02-26T06:19:17;-16.64;118.99
67186;HTU21D;54116;53.518;49.398;2024-02-26T06:21:44;-16.61;118.99
67186;HTU21D;54116;53.518;49.398;2024-02-26T06:28:38;-16.48;118.99
67186;HTU21D;54116;53.518;49.398;2024-02-26T06:49:10;-16.07;118.99
67186;HTU21D;54116;53.518;49.398;2024-02-26T06:53:55;-16.09;118.99
67186;HTU21D;54116;53.518;49.398;2024-02-26T07:03:02;-15.84;118.99
67186;HTU21D;54116;53.518;49.398;2024-02-26T07:05:29;-15.96;118.99
67186;HTU21D;54116;53.518;49.398;2024-02-26T07:07:55;-16.08;118.99
67186;HTU21D;54116;53.518;49.398;2024-02-26T07:10:21;-16.07;118.99
67186;HTU21D;54116;53.518;49.398;2024-02-26T07:12:47;-16.05;118.99
67186;HTU21D;54116;53.518;49.398;2024-02-26T07:15:14;-15.91;118.99
67186;HTU21D;54116;53.518;49.398;2024-02-26T07:17:40;-15.90;118.99
67186;HTU21D;54116;53.518;49.398;2024-02-26T07:20:13;-15.84;118.99
67186;HTU21D;54116;53.518;49.398;2024-02-26T07:22:40;-15.76;118.99
67186;HTU21D;54116;53.518;49.398;2024-02-26T07:25:08;-15.76;118.99
67186;HTU21D;54116;53.518;49.398;2024-02-26T07:27:38;-15.73;118.99
67186;HTU21D;54116;53.518;49.398;2024-02-26T07:30:05;-15.55;118.99
67186;HTU21D;54116;53.518;49.398;2024-02-26T07:32:32;-15.48;118.99
67186;HTU21D;54116;53.518;49.398;2024-02-26T07:34:58;-15.21;118.99
67186;HTU21D;54116;53.518;49.398;2024-02-26T07:37:24;-15.16;118.99
67186;HTU21D;54116;53.518;49.398;2024-02-26T07:39:50;-15.14;118.99
67186;HTU21D;54116;53.518;49.398;2024-02-26T07:42:17;-15.10;118.99
67186;HTU21D;54116;53.518;49.398;2024-02-26T07:44:43;-14.92;118.99
67186;HTU21D;54116;53.518;49.398;2024-02-26T07:47:09;-14.93;118.99
67186;HTU21D;54116;53.518;49.398;2024-02-26T07:49:36;-14.95;118.99
67186;HTU21D;54116;53.518;49.398;2024-02-26T07:52:02;-14.99;118.99
67186;HTU21D;54116;53.518;49.398;2024-02-26T07:54:29;-15.05;118.99
67186;HTU21D;54116;53.518;49.398;2024-02-26T07:56:55;-15.20;118.99
67186;HTU21D;54116;53.518;49.398;2024-02-26T07:59:22;-15.44;118.99
67186;HTU21D;54116;53.518;49.398;2024-02-26T08:01:51;-15.37;118.99
67186;HTU21D;54116;53.518;49.398;2024-02-26T08:04:18;-15.46;118.99
67186;HTU21D;54116;53.518;49.398;2024-02-26T08:06:44;-15.59;118.99
67186;HTU21D;54116;53.518;49.398;2024-02-26T08:09:10;-15.46;118.99
67186;HTU21D;54116;53.518;49.398;2024-02-26T08:11:38;-14.99;118.99
67186;HTU21D;54116;53.518;49.398;2024-02-26T08:14:05;-14.89;118.99
67186;HTU21D;54116;53.518;49.398;2024-02-26T08:16:31;-14.86;118.99
67186;HTU21D;54116;53.518;49.398;2024-02-26T08:18:57;-14.98;118.99
67186;HTU21D;54116;53.518;49.398;2024-02-26T08:21:24;-14.89;118.99
67186;HTU21D;54116;53.518;49.398;2024-02-26T08:23:50;-14.99;118.99
67186;HTU21D;54116;53.518;49.398;2024-02-26T08:26:16;-15.18;118.99
67186;HTU21D;54116;53.518;49.398;2024-02-26T08:28:42;-15.16;118.99
67186;HTU21D;54116;53.518;49.398;2024-02-26T08:31:09;-15.04;118.99
67186;HTU21D;54116;53.518;49.398;2024-02-26T08:33:36;-14.94;118.99
67186;HTU21D;54116;53.518;49.398;2024-02-26T08:36:06;-14.92;118.99
67186;HTU21D;54116;53.518;49.398;2024-02-26T08:38:32;-14.69;118.99
67186;HTU21D;54116;53.518;49.398;2024-02-26T08:41:01;-14.77;118.99
67186;HTU21D;54116;53.518;49.398;2024-02-26T08:43:28;-14.62;118.99
67186;HTU21D;54116;53.518;49.398;2024-02-26T08:45:56;-14.58;118.99
67186;HTU21D;54116;53.518;49.398;2024-02-26T08:48:22;-14.59;118.99
67186;HTU21D;54116;53.518;49.398;2024-02-26T08:50:49;-14.59;118.99
67186;HTU21D;54116;53.518;49.398;2024-02-26T08:53:16;-14.51;118.99
67186;HTU21D;54116;53.518;49.398;2024-02-26T08:55:42;-14.58;118.99
67186;HTU21D;54116;53.518;49.398;2024-02-26T08:58:08;-14.63;118.99
67186;HTU21D;54116;53.518;49.398;2024-02-26T09:00:34;-14.79;118.99
67186;HTU21D;54116;53.518;49.398;2024-02-26T09:03:01;-14.92;118.99
67186;HTU21D;54116;53.518;49.398;2024-02-26T09:05:27;-14.98;118.99
67186;HTU21D;54116;53.518;49.398;2024-02-26T09:07:53;-14.71;118.99
67186;HTU21D;54116;53.518;49.398;2024-02-26T09:10:20;-14.80;118.99
67186;HTU21D;54116;53.518;49.398;2024-02-26T09:12:46;-14.44;118.99
67186;HTU21D;54116;53.518;49.398;2024-02-26T09:15:12;-14.50;118.99
67186;HTU21D;54116;53.518;49.398;2024-02-26T09:17:39;-14.54;118.99
67186;HTU21D;54116;53.518;49.398;2024-02-26T09:20:06;-14.49;118.99
67186;HTU21D;54116;53.518;49.398;2024-02-26T09:22:35;-14.71;118.99
67186;HTU21D;54116;53.518;49.398;2024-02-26T09:25:04;-14.84;118.99
67186;HTU21D;54116;53.518;49.398;2024-02-26T09:27:31;-14.72;118.99
67186;HTU21D;54116;53.518;49.398;2024-02-26T09:29:58;-14.71;118.99
67186;HTU21D;54116;53.518;49.398;2024-02-26T09:32:24;-14.84;118.99
67186;HTU21D;54116;53.518;49.398;2024-02-26T09:34:51;-14.92;118.99
67186;HTU21D;54116;53.518;49.398;2024-02-26T09:37:17;-14.81;118.99
67186;HTU21D;54116;53.518;49.398;2024-02-26T09:39:43;-14.65;118.99
67186;HTU21D;54116;53.518;49.398;2024-02-26T09:42:12;-14.60;118.99
67186;HTU21D;54116;53.518;49.398;2024-02-26T09:44:40;-14.70;118.99
67186;HTU21D;54116;53.518;49.398;2024-02-26T09:47:10;-14.64;118.99
67186;HTU21D;54116;53.518;49.398;2024-02-26T09:49:38;-14.55;118.99
67186;HTU21D;54116;53.518;49.398;2024-02-26T09:52:05;-14.41;118.99
67186;HTU21D;54116;53.518;49.398;2024-02-26T09:54:33;-14.47;118.99
67186;HTU21D;54116;53.518;49.398;2024-02-26T09:57:00;-14.48;118.99
67186;HTU21D;54116;53.518;49.398;2024-02-26T09:59:29;-14.79;118.99
67186;HTU21D;54116;53.518;49.398;2024-02-26T10:02:00;-14.85;118.99
67186;HTU21D;54116;53.518;49.398;2024-02-26T10:04:27;-14.60;118.99
67186;HTU21D;54116;53.518;49.398;2024-02-26T10:06:54;-14.61;118.99
67186;HTU21D;54116;53.518;49.398;2024-02-26T10:09:21;-14.58;118.99
67186;HTU21D;54116;53.518;49.398;2024-02-26T10:11:48;-14.34;118.99
67186;HTU21D;54116;53.518;49.398;2024-02-26T10:14:16;-14.35;118.99
67186;HTU21D;54116;53.518;49.398;2024-02-26T10:16:43;-14.37;118.99
67186;HTU21D;54116;53.518;49.398;2024-02-26T10:19:27;-14.33;118.99
67186;HTU21D;54116;53.518;49.398;2024-02-26T10:21:59;-14.47;118.99
67186;HTU21D;54116;53.518;49.398;2024-02-26T10:24:30;-14.61;118.99
67186;HTU21D;54116;53.518;49.398;2024-02-26T10:26:57;-14.65;118.99
67186;HTU21D;54116;53.518;49.398;2024-02-26T10:29:24;-14.47;118.99
67186;HTU21D;54116;53.518;49.398;2024-02-26T10:31:52;-14.49;118.99
67186;HTU21D;54116;53.518;49.398;2024-02-26T10:34:19;-14.56;118.99
67186;HTU21D;54116;53.518;49.398;2024-02-26T10:36:46;-14.62;118.99
67186;HTU21D;54116;53.518;49.398;2024-02-26T10:39:13;-14.61;118.99
67186;HTU21D;54116;53.518;49.398;2024-02-26T10:41:44;-14.60;118.99
67186;HTU21D;54116;53.518;49.398;2024-02-26T10:44:12;-14.65;118.99
67186;HTU21D;54116;53.518;49.398;2024-02-26T10:46:41;-14.60;118.99
67186;HTU21D;54116;53.518;49.398;2024-02-26T10:49:17;-14.56;118.99
67186;HTU21D;54116;53.518;49.398;2024-02-26T10:51:54;-14.55;118.99
67186;HTU21D;54116;53.518;49.398;2024-02-26T10:54:24;-14.43;118.99
67186;HTU21D;54116;53.518;49.398;2024-02-26T10:56:52;-14.58;118.99
67186;HTU21D;54116;53.518;49.398;2024-02-26T10:59:20;-14.86;118.99
67186;HTU21D;54116;53.518;49.398;2024-02-26T11:01:48;-14.88;118.99
67186;HTU21D;54116;53.518;49.398;2024-02-26T11:04:20;-14.84;118.99
67186;HTU21D;54116;53.518;49.398;2024-02-26T11:06:49;-14.90;118.99
67186;HTU21D;54116;53.518;49.398;2024-02-26T11:09:17;-14.77;118.99
67186;HTU21D;54116;53.518;49.398;2024-02-26T11:11:45;-14.49;118.99
67186;HTU21D;54116;53.518;49.398;2024-02-26T11:14:12;-14.48;118.99
67186;HTU21D;54116;53.518;49.398;2024-02-26T11:16:39;-14.58;118.99
67186;HTU21D;54116;53.518;49.398;2024-02-26T11:19:08;-14.78;118.99
67186;HTU21D;54116;53.518;49.398;2024-02-26T11:21:36;-14.79;118.99
67186;HTU21D;54116;53.518;49.398;2024-02-26T11:24:13;-14.66;118.99
67186;HTU21D;54116;53.518;49.398;2024-02-26T11:26:47;-14.60;118.99
67186;HTU21D;54116;53.518;49.398;2024-02-26T11:29:17;-14.62;118.99
67186;HTU21D;54116;53.518;49.398;2024-02-26T11:31:45;-14.49;118.99
67186;HTU21D;54116;53.518;49.398;2024-02-26T11:34:12;-14.36;118.99
67186;HTU21D;54116;53.518;49.398;2024-02-26T11:36:39;-14.49;118.99
67186;HTU21D;54116;53.518;49.398;2024-02-26T11:39:06;-14.46;118.99
67186;HTU21D;54116;53.518;49.398;2024-02-26T11:41:33;-14.59;118.99
67186;HTU21D;54116;53.518;49.398;2024-02-26T11:44:03;-14.88;118.99
67186;HTU21D;54116;53.518;49.398;2024-02-26T11:46:38;-14.75;118.99
67186;HTU21D;54116;53.518;49.398;2024-02-26T11:51:57;-14.73;118.99
67186;HTU21D;54116;53.518;49.398;2024-02-26T11:54:46;-14.37;118.99
67186;HTU21D;54116;53.518;49.398;2024-02-26T11:57:24;-14.37;118.99
67186;HTU21D;54116;53.518;49.398;2024-02-26T11:59:52;-14.26;118.99
67186;HTU21D;54116;53.518;49.398;2024-02-26T12:02:45;-14.00;118.99
67186;HTU21D;54116;53.518;49.398;2024-02-26T12:05:15;-14.17;118.99
67186;HTU21D;54116;53.518;49.398;2024-02-26T12:08:10;-14.29;118.99
67186;HTU21D;54116;53.518;49.398;2024-02-26T12:10:41;-14.39;118.99
67186;HTU21D;54116;53.518;49.398;2024-02-26T12:13:17;-14.45;118.99
67186;HTU21D;54116;53.518;49.398;2024-02-26T12:18:20;-14.47;118.99
67186;HTU21D;54116;53.518;49.398;2024-02-26T12:20:47;-14.47;118.99
67186;HTU21D;54116;53.518;49.398;2024-02-26T12:23:23;-14.51;118.99
67186;HTU21D;54116;53.518;49.398;2024-02-26T12:25:49;-14.71;118.99
67186;HTU21D;54116;53.518;49.398;2024-02-26T12:28:16;-14.67;118.99
67186;HTU21D;54116;53.518;49.398;2024-02-26T12:30:42;-14.69;118.99
67186;HTU21D;54116;53.518;49.398;2024-02-26T12:33:09;-14.73;118.99
67186;HTU21D;54116;53.518;49.398;2024-02-26T12:35:36;-14.85;118.99
67186;HTU21D;54116;53.518;49.398;2024-02-26T12:38:03;-15.13;118.99
67186;HTU21D;54116;53.518;49.398;2024-02-26T12:40:30;-15.03;118.99
67186;HTU21D;54116;53.518;49.398;2024-02-26T12:42:57;-15.04;118.99
67186;HTU21D;54116;53.518;49.398;2024-02-26T12:45:25;-15.06;118.99
67186;HTU21D;54116;53.518;49.398;2024-02-26T12:47:52;-15.09;118.99
67186;HTU21D;54116;53.518;49.398;2024-02-26T12:50:18;-15.29;118.99
67186;HTU21D;54116;53.518;49.398;2024-02-26T12:52:46;-15.31;118.99
67186;HTU21D;54116;53.518;49.398;2024-02-26T12:55:20;-15.34;118.99
67186;HTU21D;54116;53.518;49.398;2024-02-26T12:57:48;-15.37;118.99
67186;HTU21D;54116;53.518;49.398;2024-02-26T13:00:20;-15.53;118.99
67186;HTU21D;54116;53.518;49.398;2024-02-26T13:02:49;-15.66;118.99
67186;HTU21D;54116;53.518;49.398;2024-02-26T13:05:18;-15.68;118.99
67186;HTU21D;54116;53.518;49.398;2024-02-26T13:07:46;-15.76;118.99
67186;HTU21D;54116;53.518;49.398;2024-02-26T13:10:17;-15.79;118.99
67186;HTU21D;54116;53.518;49.398;2024-02-26T13:12:49;-15.76;118.99
67186;HTU21D;54116;53.518;49.398;2024-02-26T13:15:21;-15.98;118.99
67186;HTU21D;54116;53.518;49.398;2024-02-26T13:17:49;-15.97;118.99
67186;HTU21D;54116;53.518;49.398;2024-02-26T13:20:29;-16.02;118.99
67186;HTU21D;54116;53.518;49.398;2024-02-26T13:23:06;-15.99;118.99
67186;HTU21D;54116;53.518;49.398;2024-02-26T13:25:33;-16.04;118.99
67186;HTU21D;54116;53.518;49.398;2024-02-26T13:28:17;-16.08;118.99
67186;HTU21D;54116;53.518;49.398;2024-02-26T13:30:51;-16.18;118.99
67186;HTU21D;54116;53.518;49.398;2024-02-26T13:33:19;-16.41;118.99
67186;HTU21D;54116;53.518;49.398;2024-02-26T13:35:45;-16.49;118.99
67186;HTU21D;54116;53.518;49.398;2024-02-26T13:38:11;-16.52;118.99
67186;HTU21D;54116;53.518;49.398;2024-02-26T13:40:38;-16.63;118.99
67186;HTU21D;54116;53.518;49.398;2024-02-26T13:43:05;-16.76;118.99
67186;HTU21D;54116;53.518;49.398;2024-02-26T13:45:36;-17.03;118.99
67186;HTU21D;54116;53.518;49.398;2024-02-26T13:48:08;-16.84;118.99
67186;HTU21D;54116;53.518;49.398;2024-02-26T13:50:36;-16.95;118.99
67186;HTU21D;54116;53.518;49.398;2024-02-26T13:53:02;-17.00;118.99
67186;HTU21D;54116;53.518;49.398;2024-02-26T13:55:28;-17.04;118.99
67186;HTU21D;54116;53.518;49.398;2024-02-26T13:57:56;-17.29;118.99
67186;HTU21D;54116;53.518;49.398;2024-02-26T14:00:23;-17.30;118.99
67186;HTU21D;54116;53.518;49.398;2024-02-26T14:02:51;-17.42;118.99
67186;HTU21D;54116;53.518;49.398;2024-02-26T14:05:17;-17.72;118.99
67186;HTU21D;54116;53.518;49.398;2024-02-26T14:07:44;-17.90;118.99
67186;HTU21D;54116;53.518;49.398;2024-02-26T14:10:12;-18.00;118.99
67186;HTU21D;54116;53.518;49.398;2024-02-26T14:12:39;-18.16;118.99
67186;HTU21D;54116;53.518;49.398;2024-02-26T14:15:07;-18.37;118.99
67186;HTU21D;54116;53.518;49.398;2024-02-26T14:17:33;-18.48;118.99
67186;HTU21D;54116;53.518;49.398;2024-02-26T14:20:00;-18.39;118.99
67186;HTU21D;54116;53.518;49.398;2024-02-26T14:22:26;-18.57;118.99
67186;HTU21D;54116;53.518;49.398;2024-02-26T14:24:53;-18.69;118.99
67186;HTU21D;54116;53.518;49.398;2024-02-26T14:27:19;-18.75;118.99
67186;HTU21D;54116;53.518;49.398;2024-02-26T14:29:48;-18.90;118.99
67186;HTU21D;54116;53.518;49.398;2024-02-26T14:32:15;-18.99;118.99
67186;HTU21D;54116;53.518;49.398;2024-02-26T14:34:41;-18.98;118.99
67186;HTU21D;54116;53.518;49.398;2024-02-26T14:37:10;-19.09;118.99
67186;HTU21D;54116;53.518;49.398;2024-02-26T14:39:37;-19.25;118.99
67186;HTU21D;54116;53.518;49.398;2024-02-26T14:42:04;-19.37;118.99
67186;HTU21D;54116;53.518;49.398;2024-02-26T14:44:31;-19.57;118.99
67186;HTU21D;54116;53.518;49.398;2024-02-26T14:46:58;-19.58;118.99
67186;HTU21D;54116;53.518;49.398;2024-02-26T14:49:24;-19.77;118.99
67186;HTU21D;54116;53.518;49.398;2024-02-26T14:51:50;-19.85;118.99
67186;HTU21D;54116;53.518;49.398;2024-02-26T14:54:17;-20.05;118.99
67186;HTU21D;54116;53.518;49.398;2024-02-26T14:56:43;-20.08;118.99
67186;HTU21D;54116;53.518;49.398;2024-02-26T14:59:10;-20.19;118.99
67186;HTU21D;54116;53.518;49.398;2024-02-26T15:01:36;-20.32;118.99
67186;HTU21D;54116;53.518;49.398;2024-02-26T15:04:03;-20.32;118.99
67186;HTU21D;54116;53.518;49.398;2024-02-26T15:06:29;-20.29;118.99
67186;HTU21D;54116;53.518;49.398;2024-02-26T15:08:56;-20.26;118.99
67186;HTU21D;54116;53.518;49.398;2024-02-26T15:11:22;-20.27;118.99
67186;HTU21D;54116;53.518;49.398;2024-02-26T15:13:48;-20.24;118.99
67186;HTU21D;54116;53.518;49.398;2024-02-26T15:16:18;-20.25;118.99
67186;HTU21D;54116;53.518;49.398;2024-02-26T15:18:46;-20.25;118.99
67186;HTU21D;54116;53.518;49.398;2024-02-26T15:21:13;-20.23;118.99
67186;HTU21D;54116;53.518;49.398;2024-02-26T15:23:43;-20.28;118.99
67186;HTU21D;54116;53.518;49.398;2024-02-26T15:26:15;-20.38;118.99
67186;HTU21D;54116;53.518;49.398;2024-02-26T15:28:41;-20.41;118.99
67186;HTU21D;54116;53.518;49.398;2024-02-26T15:31:07;-20.25;118.99
67186;HTU21D;54116;53.518;49.398;2024-02-26T15:33:34;-20.37;118.99
67186;HTU21D;54116;53.518;49.398;2024-02-26T15:36:00;-20.40;118.99
67186;HTU21D;54116;53.518;49.398;2024-02-26T15:38:26;-20.43;118.99
67186;HTU21D;54116;53.518;49.398;2024-02-26T15:40:53;-20.47;118.99
67186;HTU21D;54116;53.518;49.398;2024-02-26T15:43:19;-20.65;118.99
67186;HTU21D;54116;53.518;49.398;2024-02-26T15:45:47;-20.86;118.99
67186;HTU21D;54116;53.518;49.398;2024-02-26T15:48:14;-20.93;118.99
67186;HTU21D;54116;53.518;49.398;2024-02-26T15:50:40;-21.09;118.99
67186;HTU21D;54116;53.518;49.398;2024-02-26T15:53:07;-21.30;118.99
67186;HTU21D;54116;53.518;49.398;2024-02-26T15:55:34;-21.43;118.99
67186;HTU21D;54116;53.518;49.398;2024-02-26T15:58:00;-21.13;118.99
67186;HTU21D;54116;53.518;49.398;2024-02-26T16:00:26;-21.18;118.99
67186;HTU21D;54116;53.518;49.398;2024-02-26T16:02:52;-21.41;118.99
67186;HTU21D;54116;53.518;49.398;2024-02-26T16:05:19;-21.53;118.99
67186;HTU21D;54116;53.518;49.398;2024-02-26T16:07:58;-21.59;118.99
67186;HTU21D;54116;53.518;49.398;2024-02-26T16:10:25;-21.74;118.99
67186;HTU21D;54116;53.518;49.398;2024-02-26T16:12:55;-21.97;118.99
67186;HTU21D;54116;53.518;49.398;2024-02-26T16:15:22;-21.94;118.99
67186;HTU21D;54116;53.518;49.398;2024-02-26T16:17:49;-22.01;118.99
67186;HTU21D;54116;53.518;49.398;2024-02-26T16:20:19;-21.99;118.99
67186;HTU21D;54116;53.518;49.398;2024-02-26T16:22:46;-22.05;118.99
67186;HTU21D;54116;53.518;49.398;2024-02-26T16:25:12;-21.92;118.99
67186;HTU21D;54116;53.518;49.398;2024-02-26T16:27:39;-21.64;118.99
67186;HTU21D;54116;53.518;49.398;2024-02-26T16:30:08;-21.61;118.99
67186;HTU21D;54116;53.518;49.398;2024-02-26T16:32:35;-21.32;118.99
67186;HTU21D;54116;53.518;49.398;2024-02-26T16:35:06;-21.14;118.99
67186;HTU21D;54116;53.518;49.398;2024-02-26T16:37:33;-20.98;118.99
67186;HTU21D;54116;53.518;49.398;2024-02-26T16:40:04;-20.78;118.99
67186;HTU21D;54116;53.518;49.398;2024-02-26T16:42:31;-20.67;118.99
67186;HTU21D;54116;53.518;49.398;2024-02-26T16:44:58;-20.66;118.99
67186;HTU21D;54116;53.518;49.398;2024-02-26T16:47:25;-20.65;118.99
67186;HTU21D;54116;53.518;49.398;2024-02-26T16:49:52;-20.64;118.99
67186;HTU21D;54116;53.518;49.398;2024-02-26T16:52:18;-20.62;118.99
67186;HTU21D;54116;53.518;49.398;2024-02-26T16:54:44;-20.59;118.99
67186;HTU21D;54116;53.518;49.398;2024-02-26T16:57:11;-20.58;118.99
67186;HTU21D;54116;53.518;49.398;2024-02-26T16:59:37;-20.75;118.99
67186;HTU21D;54116;53.518;49.398;2024-02-26T17:02:04;-20.88;118.99
67186;HTU21D;54116;53.518;49.398;2024-02-26T17:04:32;-21.09;118.99
67186;HTU21D;54116;53.518;49.398;2024-02-26T17:06:59;-21.15;118.99
67186;HTU21D;54116;53.518;49.398;2024-02-26T17:09:25;-21.24;118.99
67186;HTU21D;54116;53.518;49.398;2024-02-26T17:11:51;-21.45;118.99
67186;HTU21D;54116;53.518;49.398;2024-02-26T17:14:20;-21.65;118.99
67186;HTU21D;54116;53.518;49.398;2024-02-26T17:16:52;-21.35;118.99
67186;HTU21D;54116;53.518;49.398;2024-02-26T17:19:18;-21.27;118.99
67186;HTU21D;54116;53.518;49.398;2024-02-26T17:21:46;-21.25;118.99
67186;HTU21D;54116;53.518;49.398;2024-02-26T17:24:12;-21.33;118.99
67186;HTU21D;54116;53.518;49.398;2024-02-26T17:26:38;-21.29;118.99
67186;HTU21D;54116;53.518;49.398;2024-02-26T17:29:06;-21.26;118.99
67186;HTU21D;54116;53.518;49.398;2024-02-26T17:31:35;-21.16;118.99
67186;HTU21D;54116;53.518;49.398;2024-02-26T17:34:11;-21.12;118.99
67186;HTU21D;54116;53.518;49.398;2024-02-26T17:36:38;-21.05;118.99
67186;HTU21D;54116;53.518;49.398;2024-02-26T17:39:05;-21.01;118.99
67186;HTU21D;54116;53.518;49.398;2024-02-26T17:41:31;-20.86;118.99
67186;HTU21D;54116;53.518;49.398;2024-02-26T17:43:58;-20.76;118.99
67186;HTU21D;54116;53.518;49.398;2024-02-26T17:46:24;-20.83;118.99
67186;HTU21D;54116;53.518;49.398;2024-02-26T17:48:51;-21.11;118.99
67186;HTU21D;54116;53.518;49.398;2024-02-26T17:51:17;-21.33;118.99
67186;HTU21D;54116;53.518;49.398;2024-02-26T17:53:43;-21.60;118.99
67186;HTU21D;54116;53.518;49.398;2024-02-26T17:56:10;-21.69;118.99
67186;HTU21D;54116;53.518;49.398;2024-02-26T17:58:40;-21.70;118.99
67186;HTU21D;54116;53.518;49.398;2024-02-26T18:01:08;-21.62;118.99
67186;HTU21D;54116;53.518;49.398;2024-02-26T18:03:35;-21.72;118.99
67186;HTU21D;54116;53.518;49.398;2024-02-26T18:06:01;-21.76;118.99
67186;HTU21D;54116;53.518;49.398;2024-02-26T18:08:28;-21.95;118.99
67186;HTU21D;54116;53.518;49.398;2024-02-26T18:10:54;-22.14;118.99
67186;HTU21D;54116;53.518;49.398;2024-02-26T18:13:21;-22.24;118.99
67186;HTU21D;54116;53.518;49.398;2024-02-26T18:15:47;-22.25;118.99
67186;HTU21D;54116;53.518;49.398;2024-02-26T18:18:13;-22.13;118.99
67186;HTU21D;54116;53.518;49.398;2024-02-26T18:20:39;-22.05;118.99
67186;HTU21D;54116;53.518;49.398;2024-02-26T18:23:06;-21.98;118.99
67186;HTU21D;54116;53.518;49.398;2024-02-26T18:25:32;-21.95;118.99
67186;HTU21D;54116;53.518;49.398;2024-02-26T18:27:59;-21.92;118.99
67186;HTU21D;54116;53.518;49.398;2024-02-26T18:30:26;-21.89;118.99
67186;HTU21D;54116;53.518;49.398;2024-02-26T18:32:52;-21.87;118.99
67186;HTU21D;54116;53.518;49.398;2024-02-26T18:35:19;-21.80;118.99
67186;HTU21D;54116;53.518;49.398;2024-02-26T18:37:46;-21.88;118.99
67186;HTU21D;54116;53.518;49.398;2024-02-26T18:40:13;-21.84;118.99
67186;HTU21D;54116;53.518;49.398;2024-02-26T18:42:39;-21.82;118.99
67186;HTU21D;54116;53.518;49.398;2024-02-26T18:45:07;-21.82;118.99
67186;HTU21D;54116;53.518;49.398;2024-02-26T18:47:34;-21.83;118.99
67186;HTU21D;54116;53.518;49.398;2024-02-26T18:50:01;-21.94;118.99
67186;HTU21D;54116;53.518;49.398;2024-02-26T18:52:27;-22.15;118.99
67186;HTU21D;54116;53.518;49.398;2024-02-26T18:54:53;-22.28;118.99
67186;HTU21D;54116;53.518;49.398;2024-02-26T18:57:20;-22.24;118.99
67186;HTU21D;54116;53.518;49.398;2024-02-26T18:59:46;-22.46;118.99
67186;HTU21D;54116;53.518;49.398;2024-02-26T19:02:15;-22.53;118.99
67186;HTU21D;54116;53.518;49.398;2024-02-26T19:04:42;-22.62;118.99
67186;HTU21D;54116;53.518;49.398;2024-02-26T19:07:11;-22.68;118.99
67186;HTU21D;54116;53.518;49.398;2024-02-26T19:09:37;-22.47;118.99
67186;HTU21D;54116;53.518;49.398;2024-02-26T19:12:04;-22.38;118.99
67186;HTU21D;54116;53.518;49.398;2024-02-26T19:14:31;-22.29;118.99
67186;HTU21D;54116;53.518;49.398;2024-02-26T19:16:57;-22.32;118.99
67186;HTU21D;54116;53.518;49.398;2024-02-26T19:19:24;-22.49;118.99
67186;HTU21D;54116;53.518;49.398;2024-02-26T19:21:50;-22.55;118.99
67186;HTU21D;54116;53.518;49.398;2024-02-26T19:24:16;-22.64;118.99
67186;HTU21D;54116;53.518;49.398;2024-02-26T19:26:43;-22.74;118.99
67186;HTU21D;54116;53.518;49.398;2024-02-26T19:29:09;-22.74;118.99
67186;HTU21D;54116;53.518;49.398;2024-02-26T19:31:35;-22.72;118.99
67186;HTU21D;54116;53.518;49.398;2024-02-26T19:34:02;-22.54;118.99
67186;HTU21D;54116;53.518;49.398;2024-02-26T19:36:29;-22.53;118.99
67186;HTU21D;54116;53.518;49.398;2024-02-26T19:38:55;-22.50;118.99
67186;HTU21D;54116;53.518;49.398;2024-02-26T19:41:22;-22.58;118.99
67186;HTU21D;54116;53.518;49.398;2024-02-26T19:43:48;-22.47;118.99
67186;HTU21D;54116;53.518;49.398;2024-02-26T19:46:15;-22.65;118.99
67186;HTU21D;54116;53.518;49.398;2024-02-26T19:48:41;-22.54;118.99
67186;HTU21D;54116;53.518;49.398;2024-02-26T19:51:08;-22.38;118.99
67186;HTU21D;54116;53.518;49.398;2024-02-26T19:53:34;-22.56;118.99
67186;HTU21D;54116;53.518;49.398;2024-02-26T19:56:00;-22.61;118.99
67186;HTU21D;54116;53.518;49.398;2024-02-26T19:58:27;-22.90;118.99
67186;HTU21D;54116;53.518;49.398;2024-02-26T20:00:53;-22.57;118.99
67186;HTU21D;54116;53.518;49.398;2024-02-26T20:03:20;-22.75;118.99
67186;HTU21D;54116;53.518;49.398;2024-02-26T20:05:46;-22.77;118.99
67186;HTU21D;54116;53.518;49.398;2024-02-26T20:08:12;-23.17;118.99
67186;HTU21D;54116;53.518;49.398;2024-02-26T20:10:39;-23.38;118.99
67186;HTU21D;54116;53.518;49.398;2024-02-26T20:13:05;-23.59;118.99
67186;HTU21D;54116;53.518;49.398;2024-02-26T20:15:32;-23.76;118.99
67186;HTU21D;54116;53.518;49.398;2024-02-26T20:17:58;-23.90;118.99
67186;HTU21D;54116;53.518;49.398;2024-02-26T20:20:24;-23.83;118.99
67186;HTU21D;54116;53.518;49.398;2024-02-26T20:22:55;-24.03;118.99
67186;HTU21D;54116;53.518;49.398;2024-02-26T20:25:21;-24.02;118.99
67186;HTU21D;54116;53.518;49.398;2024-02-26T20:27:48;-24.11;118.99
67186;HTU21D;54116;53.518;49.398;2024-02-26T20:30:14;-24.07;118.99
67186;HTU21D;54116;53.518;49.398;2024-02-26T20:32:42;-24.19;118.99
67186;HTU21D;54116;53.518;49.398;2024-02-26T20:35:08;-24.24;118.99
67186;HTU21D;54116;53.518;49.398;2024-02-26T20:37:36;-24.30;118.99
67186;HTU21D;54116;53.518;49.398;2024-02-26T20:40:04;-24.28;118.99
67186;HTU21D;54116;53.518;49.398;2024-02-26T20:42:32;-24.42;118.99
67186;HTU21D;54116;53.518;49.398;2024-02-26T20:44:59;-24.60;118.99
67186;HTU21D;54116;53.518;49.398;2024-02-26T20:47:25;-24.63;118.99
67186;HTU21D;54116;53.518;49.398;2024-02-26T20:49:51;-24.55;118.99
67186;HTU21D;54116;53.518;49.398;2024-02-26T20:52:18;-24.51;118.99
67186;HTU21D;54116;53.518;49.398;2024-02-26T20:54:46;-24.55;118.99
67186;HTU21D;54116;53.518;49.398;2024-02-26T20:57:13;-24.49;118.99
67186;HTU21D;54116;53.518;49.398;2024-02-26T20:59:39;-24.41;118.99